Weather at Sarıbük Garrison Helipad

Public forecast

Using degrees Celsius for public forecast. Weather courtesy of forecast.io.

Closest aviation weather report (METAR) to Sarıbük Garrison Helipad

Closest report is Hatay Airport, 21.5 nm (39.8 km) N.

2024/07/20 06:50 (retrieved 50 minutes ago)

LTDA 200650Z 30019KT 270V330 CAVOK 33/20 Q1000 NOSIG

Closest aviation forecast (TAF) to Sarıbük Garrison Helipad

Closest forecast is Hmeimim Air Base, 40.5 nm (75.0 km) SSW.

2024/07/20 06:39 (retrieved 1 hour ago)

TAF TAF OSLK 200500Z 2006/2106 23010KT CAVOK BECMG 2018/2020 10005KT CAVOK